Time;durP1;ratioP1;P1;durP2;ratioP2;P2;SDS_P1;SDS_P2;PMS_P1;PMS_P2;Temp;Humidity;BMP_temperature;BMP_pressure;BME280_temperature;BME280_humidity;BME280_pressure;Samples;Min_cycle;Max_cycle;Signal;HPM_P1;HPM_P2
2021/06/07 00:01:55;;;;;;;20.45;17.25;;;25.00;89.30;;;;;;5056695;28;20029;-82
2021/06/07 00:04:21;;;;;;;19.77;17.08;;;25.00;89.20;;;;;;5056597;28;20474;-82
2021/06/07 00:06:47;;;;;;;22.10;18.52;;;25.00;89.30;;;;;;5057140;28;20111;-82
2021/06/07 00:09:15;;;;;;;24.15;19.45;;;25.00;89.20;;;;;;5056718;28;20496;-82
2021/06/07 00:11:44;;;;;;;23.95;18.85;;;25.00;89.20;;;;;;5056644;28;20024;-82
2021/06/07 00:14:11;;;;;;;24.13;19.33;;;25.00;89.20;;;;;;5040459;28;20131;-82
2021/06/07 00:16:37;;;;;;;24.55;19.52;;;25.00;89.10;;;;;;5039376;28;20054;-82
2021/06/07 00:19:08;;;;;;;24.02;20.17;;;25.00;89.10;;;;;;5056532;28;20090;-81
2021/06/07 00:21:34;;;;;;;23.83;19.75;;;25.00;89.10;;;;;;5056180;28;20021;-82
2021/06/07 00:24:01;;;;;;;25.70;20.42;;;25.00;89.20;;;;;;5074146;28;20057;-82
2021/06/07 00:26:27;;;;;;;27.73;21.33;;;25.00;89.40;;;;;;5074077;28;20028;-81
2021/06/07 00:28:54;;;;;;;27.13;21.17;;;25.00;89.50;;;;;;5056396;28;20032;-82
2021/06/07 00:31:20;;;;;;;28.70;22.45;;;25.00;89.60;;;;;;5023421;28;20040;-82
2021/06/07 00:33:46;;;;;;;28.20;22.27;;;25.00;89.70;;;;;;5056876;28;20116;-82
2021/06/07 00:36:13;;;;;;;30.25;23.30;;;25.00;89.70;;;;;;5056220;28;20100;-82
2021/06/07 00:38:39;;;;;;;28.48;22.90;;;25.00;89.80;;;;;;5039543;28;20102;-81
2021/06/07 00:41:07;;;;;;;27.48;21.85;;;25.00;89.80;;;;;;5056173;28;20111;-82
2021/06/07 00:43:33;;;;;;;27.48;22.15;;;25.00;89.90;;;;;;5055936;28;20020;-82
2021/06/07 00:45:59;;;;;;;30.73;23.25;;;25.00;89.90;;;;;;5056290;28;20434;-82
2021/06/07 00:48:26;;;;;;;27.20;22.27;;;25.00;89.90;;;;;;5056026;28;20040;-81
2021/06/07 00:50:56;;;;;;;30.00;23.20;;;25.00;89.90;;;;;;5039978;28;20032;-82
2021/06/07 00:53:22;;;;;;;26.80;22.30;;;25.00;89.90;;;;;;5061257;28;20183;-83
2021/06/07 00:56:01;;;;;;;27.60;22.75;;;25.00;90.10;;;;;;5056553;28;20025;-81
2021/06/07 00:58:39;;;;;;;28.67;23.10;;;25.00;89.90;;;;;;5055767;28;20036;-81
2021/06/07 01:01:07;;;;;;;30.50;23.27;;;25.00;89.80;;;;;;5073891;28;20029;-82
2021/06/07 01:03:35;;;;;;;29.42;22.45;;;25.00;89.80;;;;;;5073220;28;20025;-82
2021/06/07 01:06:02;;;;;;;28.80;22.77;;;25.00;89.90;;;;;;5039360;28;20052;-83
2021/06/07 01:08:28;;;;;;;26.45;21.75;;;24.90;89.80;;;;;;5055504;28;20624;-81
2021/06/07 01:10:55;;;;;;;27.30;21.85;;;25.00;89.80;;;;;;5073711;28;20029;-82
2021/06/07 01:13:21;;;;;;;26.02;20.55;;;24.90;89.80;;;;;;5055569;28;20032;-82
2021/06/07 01:15:48;;;;;;;27.58;21.73;;;24.90;89.80;;;;;;5055161;28;20064;-81
2021/06/07 01:18:18;;;;;;;27.05;20.70;;;25.00;89.80;;;;;;5055539;28;20513;-82
2021/06/07 01:20:45;;;;;;;24.95;20.38;;;24.90;89.70;;;;;;5073402;28;20063;-82
2021/06/07 01:23:11;;;;;;;26.35;20.35;;;25.00;89.80;;;;;;5055839;28;20108;-82
2021/06/07 01:25:40;;;;;;;23.38;19.33;;;25.00;89.80;;;;;;5038574;28;20119;-82
2021/06/07 01:28:08;;;;;;;24.85;19.52;;;25.00;89.80;;;;;;5073494;28;20028;-82
2021/06/07 01:30:37;;;;;;;24.52;19.45;;;24.90;89.70;;;;;;5072981;28;20029;-82
2021/06/07 01:33:05;;;;;;;25.02;19.80;;;25.00;89.80;;;;;;5055359;28;20119;-82
2021/06/07 01:35:31;;;;;;;20.92;17.65;;;24.90;89.70;;;;;;5072680;28;20028;-82
2021/06/07 01:37:57;;;;;;;22.83;18.65;;;24.90;89.70;;;;;;5054622;28;20072;-81
2021/06/07 01:40:28;;;;;;;21.83;18.13;;;24.90;89.70;;;;;;5055409;28;20052;-81
2021/06/07 01:42:54;;;;;;;21.85;18.08;;;24.90;89.70;;;;;;5054801;28;20127;-81
2021/06/07 01:45:22;;;;;;;20.48;17.92;;;24.90;89.70;;;;;;5055351;28;20466;-81
2021/06/07 01:47:48;;;;;;;19.27;16.55;;;24.90;89.70;;;;;;5054795;28;20033;-81
2021/06/07 01:50:14;;;;;;;20.67;16.40;;;24.90;89.70;;;;;;5038918;28;20028;-82
2021/06/07 01:52:44;;;;;;;19.70;16.80;;;24.90;89.70;;;;;;5038452;28;20032;-82
2021/06/07 01:55:21;;;;;;;19.45;15.85;;;24.90;89.70;;;;;;5038502;28;20033;-83
2021/06/07 01:57:49;;;;;;;20.55;16.08;;;24.90;89.70;;;;;;5054936;28;20029;-83
2021/06/07 02:00:23;;;;;;;18.02;15.52;;;24.90;89.70;;;;;;5055004;28;20418;-82
2021/06/07 02:02:49;;;;;;;19.13;15.80;;;24.90;89.70;;;;;;5054690;28;20024;-82
2021/06/07 02:05:20;;;;;;;20.35;16.05;;;24.90;89.70;;;;;;5073153;28;20421;-82
2021/06/07 02:07:49;;;;;;;17.92;14.60;;;24.90;89.70;;;;;;5072372;28;20036;-82
2021/06/07 02:10:16;;;;;;;17.05;14.13;;;24.90;89.70;;;;;;5072718;28;20028;-82
2021/06/07 02:12:42;;;;;;;19.77;14.80;;;24.90;89.80;;;;;;5072795;28;20024;-82
2021/06/07 02:15:10;;;;;;;17.77;14.75;;;24.90;89.80;;;;;;5055002;28;20028;-82
2021/06/07 02:17:36;;;;;;;15.77;13.10;;;24.90;89.80;;;;;;5072182;28;20056;-83
2021/06/07 02:20:04;;;;;;;17.20;13.93;;;24.90;89.80;;;;;;5072777;28;20028;-82
2021/06/07 02:22:34;;;;;;;18.33;14.10;;;24.90;89.80;;;;;;5054507;28;20074;-83
2021/06/07 02:25:00;;;;;;;17.55;13.05;;;24.90;89.80;;;;;;5055095;28;20059;-82
2021/06/07 02:27:25;;;;;;;16.48;12.40;;;24.90;89.70;;;;;;5038053;28;20029;-82
2021/06/07 02:29:51;;;;;;;15.93;13.05;;;24.90;89.70;;;;;;5072412;28;20374;-82
2021/06/07 02:32:17;;;;;;;15.07;12.52;;;24.90;89.70;;;;;;5054787;28;20378;-82
2021/06/07 02:34:43;;;;;;;15.43;12.77;;;24.80;89.70;;;;;;5037836;28;20086;-82
2021/06/07 02:37:08;;;;;;;15.98;13.07;;;24.80;89.70;;;;;;5022001;28;20029;-82
2021/06/07 02:39:34;;;;;;;19.25;12.93;;;24.80;89.70;;;;;;5022501;28;20033;-83
2021/06/07 02:42:00;;;;;;;14.45;11.93;;;24.90;89.70;;;;;;5054956;28;20479;-82
2021/06/07 02:44:26;;;;;;;13.35;10.98;;;24.80;89.70;;;;;;5072562;28;20035;-83
2021/06/07 02:46:51;;;;;;;14.15;11.82;;;24.80;89.60;;;;;;5037743;28;20037;-82
2021/06/07 02:49:17;;;;;;;13.68;10.95;;;24.90;89.70;;;;;;5022759;28;20037;-82
2021/06/07 02:51:42;;;;;;;13.75;10.88;;;24.90;89.70;;;;;;5075980;28;20520;-82
2021/06/07 02:54:09;;;;;;;13.55;10.90;;;24.80;89.60;;;;;;5058000;28;20032;-83
2021/06/07 02:56:34;;;;;;;12.90;10.38;;;24.80;89.60;;;;;;5075985;28;20031;-83
2021/06/07 02:59:01;;;;;;;14.23;11.13;;;24.80;89.60;;;;;;5057946;28;20413;-82
2021/06/07 03:01:27;;;;;;;12.52;10.77;;;24.80;89.50;;;;;;5041631;28;20036;-82
2021/06/07 03:03:52;;;;;;;12.05;10.00;;;24.80;89.50;;;;;;5057784;28;20043;-82
2021/06/07 03:06:18;;;;;;;12.38;10.52;;;24.80;89.50;;;;;;5057856;28;20029;-82
2021/06/07 03:08:44;;;;;;;12.50;10.45;;;24.80;89.50;;;;;;5058039;28;20036;-83
2021/06/07 03:11:11;;;;;;;12.15;9.70;;;24.80;89.50;;;;;;5058171;28;20565;-83
2021/06/07 03:13:39;;;;;;;11.73;9.43;;;24.80;89.60;;;;;;5075820;28;20020;-82
2021/06/07 03:16:06;;;;;;;11.63;9.25;;;24.80;89.40;;;;;;5037878;28;20057;-82
2021/06/07 03:18:32;;;;;;;10.85;8.57;;;24.80;89.40;;;;;;5054562;28;20528;-82
2021/06/07 03:20:57;;;;;;;10.60;9.18;;;24.80;89.30;;;;;;5055781;28;20029;-81
2021/06/07 03:23:27;;;;;;;11.18;9.15;;;24.80;89.10;;;;;;5054658;28;20399;-81
2021/06/07 03:25:53;;;;;;;12.38;9.38;;;24.80;89.00;;;;;;5054213;28;20029;-82
2021/06/07 03:28:20;;;;;;;11.95;9.93;;;24.80;89.00;;;;;;5037859;28;20098;-82
2021/06/07 03:30:47;;;;;;;12.90;9.73;;;24.80;88.90;;;;;;5055334;28;20036;-82
2021/06/07 03:33:13;;;;;;;12.57;10.38;;;24.80;88.80;;;;;;5055578;28;20036;-82
2021/06/07 03:35:41;;;;;;;13.10;10.82;;;24.80;88.70;;;;;;5037459;28;20525;-82
2021/06/07 03:38:08;;;;;;;13.90;11.20;;;24.80;88.60;;;;;;5054463;28;20036;-82
2021/06/07 03:40:36;;;;;;;15.18;12.23;;;24.80;88.60;;;;;;5054229;28;20029;-82
2021/06/07 03:43:03;;;;;;;16.13;12.25;;;24.70;88.50;;;;;;5053998;28;20025;-82
2021/06/07 03:45:29;;;;;;;16.08;13.02;;;24.70;88.50;;;;;;5020919;28;20031;-81
2021/06/07 03:47:55;;;;;;;15.63;12.65;;;24.80;88.50;;;;;;5053743;28;20123;-82
2021/06/07 03:50:24;;;;;;;19.08;14.38;;;24.70;88.40;;;;;;5037448;28;20035;-81
2021/06/07 03:52:50;;;;;;;19.77;14.93;;;24.70;88.30;;;;;;5054846;28;20021;-81
2021/06/07 03:55:18;;;;;;;19.48;15.60;;;24.70;88.20;;;;;;5054825;28;20482;-82
2021/06/07 03:57:43;;;;;;;21.40;16.45;;;24.70;88.20;;;;;;5051926;28;20029;-82
2021/06/07 04:00:13;;;;;;;22.48;17.10;;;24.70;88.20;;;;;;5036853;28;20033;-83
2021/06/07 04:02:39;;;;;;;21.83;17.33;;;24.70;88.10;;;;;;5052887;28;20498;-83
2021/06/07 04:05:07;;;;;;;22.70;17.13;;;24.70;88.10;;;;;;5054972;28;20467;-82
2021/06/07 04:07:34;;;;;;;21.98;17.50;;;24.70;88.10;;;;;;5053796;28;20048;-82
2021/06/07 04:10:04;;;;;;;23.38;18.63;;;24.70;88.10;;;;;;5053430;28;20036;-82
2021/06/07 04:12:30;;;;;;;24.23;19.33;;;24.70;88.00;;;;;;5053424;28;20135;-82
2021/06/07 04:14:55;;;;;;;25.02;19.30;;;24.70;88.00;;;;;;5020192;28;20497;-81
2021/06/07 04:17:21;;;;;;;25.23;19.08;;;24.70;88.00;;;;;;5036804;28;20057;-82
2021/06/07 04:19:47;;;;;;;26.20;20.75;;;24.70;88.00;;;;;;5036740;28;20045;-82
2021/06/07 04:22:12;;;;;;;25.30;20.25;;;24.70;88.00;;;;;;5036953;28;20082;-81
2021/06/07 04:24:38;;;;;;;26.33;20.50;;;24.70;88.00;;;;;;5054624;28;20578;-82
2021/06/07 04:27:04;;;;;;;25.52;19.52;;;24.70;87.90;;;;;;5053049;28;20032;-82
2021/06/07 04:29:30;;;;;;;25.95;20.77;;;24.70;87.90;;;;;;5054263;28;20036;-81
2021/06/07 04:31:55;;;;;;;24.77;20.23;;;24.70;87.90;;;;;;5052724;28;20059;-82
2021/06/07 04:34:21;;;;;;;24.20;19.65;;;24.70;87.90;;;;;;5054066;28;20025;-82
2021/06/07 04:36:47;;;;;;;27.25;20.45;;;24.70;87.90;;;;;;5036146;28;20033;-83
2021/06/07 04:39:12;;;;;;;26.55;20.60;;;24.70;87.90;;;;;;5036255;28;20502;-82
2021/06/07 04:41:38;;;;;;;26.65;20.20;;;24.70;87.90;;;;;;5053188;28;20104;-83
2021/06/07 04:44:04;;;;;;;25.98;20.10;;;24.70;87.90;;;;;;5036278;28;20529;-82
2021/06/07 04:46:30;;;;;;;28.02;21.42;;;24.70;87.90;;;;;;5036124;28;20029;-83
2021/06/07 04:48:55;;;;;;;26.95;20.83;;;24.70;87.90;;;;;;5035900;28;20044;-83
2021/06/07 04:51:21;;;;;;;27.40;21.80;;;24.70;87.90;;;;;;5052359;28;20067;-83
2021/06/07 04:53:47;;;;;;;27.35;21.77;;;24.80;88.00;;;;;;5052297;28;20110;-83
2021/06/07 04:56:12;;;;;;;27.00;20.92;;;24.80;88.10;;;;;;5052456;28;20029;-83
2021/06/07 04:58:38;;;;;;;24.77;19.13;;;24.80;88.10;;;;;;5035657;28;20037;-83
2021/06/07 05:01:07;;;;;;;24.77;18.02;;;24.80;88.20;;;;;;5053507;28;20474;-82
2021/06/07 05:03:33;;;;;;;21.58;17.05;;;24.80;88.20;;;;;;5053482;28;20102;-82
2021/06/07 05:06:01;;;;;;;19.92;15.55;;;24.80;88.20;;;;;;5052106;28;20052;-83
2021/06/07 05:08:28;;;;;;;19.98;15.13;;;24.80;88.20;;;;;;5052353;28;20029;-82
2021/06/07 05:10:54;;;;;;;17.67;13.63;;;24.80;88.20;;;;;;5050376;28;20386;-84
2021/06/07 05:13:21;;;;;;;16.30;13.10;;;24.80;88.20;;;;;;5051916;28;20033;-83
2021/06/07 05:15:47;;;;;;;14.82;12.32;;;24.80;88.30;;;;;;5055264;28;20025;-84
2021/06/07 05:18:14;;;;;;;13.63;11.32;;;24.80;88.30;;;;;;5038864;28;20036;-83
2021/06/07 05:20:41;;;;;;;13.18;10.43;;;24.90;88.40;;;;;;5073608;28;20033;-83
2021/06/07 05:23:07;;;;;;;13.70;10.48;;;24.90;88.40;;;;;;5055477;28;20036;-81
2021/06/07 05:25:35;;;;;;;12.98;9.60;;;24.90;88.50;;;;;;5073543;28;20035;-82
2021/06/07 05:28:02;;;;;;;12.45;10.23;;;24.90;88.60;;;;;;5055045;28;20482;-83
2021/06/07 05:30:29;;;;;;;10.77;9.35;;;24.90;89.20;;;;;;5072311;28;20082;-83
2021/06/07 05:32:55;;;;;;;10.80;8.90;;;24.90;88.60;;;;;;5072927;28;20024;-82
2021/06/07 05:35:24;;;;;;;11.70;9.10;;;24.90;88.60;;;;;;5073228;28;20035;-82
2021/06/07 05:37:49;;;;;;;12.15;9.40;;;24.90;88.60;;;;;;5072444;28;20028;-81
2021/06/07 05:40:18;;;;;;;10.02;7.68;;;24.90;88.60;;;;;;5055097;28;20028;-80
2021/06/07 05:42:44;;;;;;;11.38;8.55;;;24.90;88.60;;;;;;5055264;28;20027;-80
2021/06/07 05:45:12;;;;;;;10.18;7.80;;;24.90;88.70;;;;;;5072632;28;20029;-81
2021/06/07 05:47:38;;;;;;;9.43;7.72;;;25.00;88.90;;;;;;5055388;28;20028;-81
2021/06/07 05:50:07;;;;;;;9.63;7.25;;;25.00;89.30;;;;;;5072533;28;20025;-81
2021/06/07 05:52:33;;;;;;;9.02;6.53;;;25.00;89.10;;;;;;5073145;28;20016;-82
2021/06/07 05:54:59;;;;;;;7.57;6.45;;;25.00;89.20;;;;;;5054797;28;20111;-81
2021/06/07 05:57:25;;;;;;;6.97;5.72;;;25.00;89.30;;;;;;5055899;28;20402;-81
2021/06/07 05:59:50;;;;;;;6.60;5.43;;;25.00;89.40;;;;;;5054874;28;20531;-81
2021/06/07 06:02:17;;;;;;;7.13;5.82;;;25.00;89.40;;;;;;5038150;28;20029;-81
2021/06/07 06:04:43;;;;;;;5.82;5.10;;;25.00;89.40;;;;;;5072999;28;20025;-80
2021/06/07 06:07:09;;;;;;;6.03;4.90;;;25.00;89.40;;;;;;5054334;28;20028;-81
2021/06/07 06:09:35;;;;;;;5.60;4.75;;;25.00;89.50;;;;;;5054260;28;20029;-81
2021/06/07 06:12:01;;;;;;;5.40;4.53;;;25.00;89.50;;;;;;5054465;28;20107;-81
2021/06/07 06:14:28;;;;;;;5.22;4.00;;;25.00;89.60;;;;;;5071910;28;20112;-82
2021/06/07 06:16:54;;;;;;;5.22;3.72;;;25.00;89.60;;;;;;5054356;28;20098;-82
2021/06/07 06:19:20;;;;;;;4.28;3.72;;;25.00;89.60;;;;;;5038283;28;20038;-82
2021/06/07 06:21:46;;;;;;;4.93;3.50;;;25.00;89.60;;;;;;5038240;28;20036;-82
2021/06/07 06:24:12;;;;;;;4.38;3.72;;;25.00;89.70;;;;;;5057389;28;20576;-82
2021/06/07 06:26:40;;;;;;;6.07;4.05;;;25.10;89.70;;;;;;5042178;28;20514;-82
2021/06/07 06:29:07;;;;;;;4.22;3.25;;;25.10;89.80;;;;;;5058377;28;20029;-82
2021/06/07 06:31:34;;;;;;;5.57;3.75;;;25.10;90.20;;;;;;5058506;28;20450;-82
2021/06/07 06:34:00;;;;;;;5.47;3.45;;;25.10;90.20;;;;;;5041802;28;20109;-82
2021/06/07 06:36:27;;;;;;;5.85;3.03;;;25.10;90.30;;;;;;5076691;28;20035;-81
2021/06/07 06:38:53;;;;;;;6.97;3.50;;;25.10;90.40;;;;;;5076373;28;20158;-80
2021/06/07 06:41:19;;;;;;;4.38;3.20;;;25.20;90.50;;;;;;5041932;28;20028;-82
2021/06/07 06:43:44;;;;;;;4.57;2.78;;;25.20;90.50;;;;;;5076012;28;20024;-82
2021/06/07 06:46:10;;;;;;;2.80;2.47;;;25.20;90.40;;;;;;5024466;28;20071;-81
2021/06/07 06:48:36;;;;;;;4.28;2.58;;;25.20;90.30;;;;;;5058329;28;20028;-82
2021/06/07 06:51:03;;;;;;;2.20;2.00;;;25.20;90.30;;;;;;5058128;28;20488;-82
2021/06/07 06:53:29;;;;;;;2.05;1.90;;;25.20;90.30;;;;;;5058552;28;20025;-81
2021/06/07 06:55:55;;;;;;;2.70;2.00;;;25.20;90.20;;;;;;5076029;28;20103;-82
2021/06/07 06:58:22;;;;;;;2.53;2.03;;;25.20;90.20;;;;;;5057033;28;20037;-81
2021/06/07 07:00:48;;;;;;;2.25;1.90;;;25.30;90.30;;;;;;5076015;28;20021;-81
2021/06/07 07:03:20;;;;;;;1.92;1.77;;;25.30;90.20;;;;;;5075555;28;20028;-81
2021/06/07 07:05:47;;;;;;;1.80;1.52;;;25.30;90.20;;;;;;5057960;28;20032;-81
2021/06/07 07:08:14;;;;;;;1.67;1.50;;;25.30;90.20;;;;;;5075136;28;20445;-81
2021/06/07 07:10:43;;;;;;;1.45;1.35;;;25.30;90.20;;;;;;5057859;28;20024;-81
2021/06/07 07:13:08;;;;;;;1.67;1.35;;;25.30;90.20;;;;;;5075474;28;20033;-82
2021/06/07 07:15:35;;;;;;;1.60;1.50;;;25.30;90.20;;;;;;5057867;28;20028;-82
2021/06/07 07:18:01;;;;;;;1.52;1.40;;;25.30;90.20;;;;;;5072868;28;20401;-82
2021/06/07 07:20:27;;;;;;;1.33;0.90;;;25.30;90.20;;;;;;5041064;28;20119;-82
2021/06/07 07:22:52;;;;;;;1.00;0.90;;;25.30;90.20;;;;;;5041311;28;20551;-82
2021/06/07 07:25:19;;;;;;;1.20;1.10;;;25.30;90.20;;;;;;5057922;28;20076;-81
2021/06/07 07:27:45;;;;;;;1.00;0.90;;;25.30;90.20;;;;;;5059578;28;20044;-81
2021/06/07 07:30:17;;;;;;;0.98;0.82;;;25.30;90.20;;;;;;5059541;28;20024;-82
2021/06/07 07:32:45;;;;;;;0.98;0.93;;;25.30;90.20;;;;;;5075980;28;20033;-81
2021/06/07 07:35:11;;;;;;;0.80;0.80;;;25.30;90.40;;;;;;5023631;28;20033;-81
2021/06/07 07:37:37;;;;;;;0.70;0.70;;;25.30;90.20;;;;;;5041132;28;20056;-82
2021/06/07 07:40:05;;;;;;;0.90;0.90;;;25.30;90.40;;;;;;5057531;28;20077;-82
2021/06/07 07:42:32;;;;;;;0.70;0.70;;;25.40;90.20;;;;;;5057403;28;20086;-81
2021/06/07 07:44:58;;;;;;;0.85;0.80;;;25.30;90.20;;;;;;5057465;28;20035;-81
2021/06/07 07:47:23;;;;;;;1.00;0.85;;;25.40;90.20;;;;;;5057381;28;20028;-82
2021/06/07 07:49:49;;;;;;;0.80;0.70;;;25.40;90.20;;;;;;5074737;28;20036;-81
2021/06/07 07:52:15;;;;;;;0.98;0.88;;;25.40;90.20;;;;;;5074591;28;20029;-82
2021/06/07 07:54:40;;;;;;;0.75;0.75;;;25.40;90.20;;;;;;5057140;28;20466;-81
2021/06/07 07:57:07;;;;;;;0.60;0.60;;;25.40;90.20;;;;;;5040148;28;20039;-82
2021/06/07 07:59:33;;;;;;;0.93;0.77;;;25.40;90.20;;;;;;5074944;28;20528;-82
2021/06/07 08:02:00;;;;;;;0.73;0.70;;;25.40;90.20;;;;;;5056720;28;20048;-82
2021/06/07 08:04:26;;;;;;;0.73;0.70;;;25.40;90.20;;;;;;5043783;28;20039;-82
2021/06/07 08:06:52;;;;;;;0.80;0.70;;;25.50;90.20;;;;;;5056338;28;20466;-82
2021/06/07 08:09:18;;;;;;;0.60;0.60;;;25.50;90.20;;;;;;5074281;28;20107;-83
2021/06/07 08:11:43;;;;;;;1.75;0.63;;;25.50;90.20;;;;;;5056570;28;20031;-82
2021/06/07 08:14:09;;;;;;;0.80;0.77;;;25.50;90.20;;;;;;5039704;28;20078;-82
2021/06/07 08:16:34;;;;;;;0.68;0.63;;;25.50;90.20;;;;;;5039874;28;20139;-81
2021/06/07 08:19:00;;;;;;;1.58;0.80;;;25.50;90.20;;;;;;5056478;28;20482;-82
2021/06/07 08:21:26;;;;;;;0.63;0.60;;;25.50;90.10;;;;;;5039701;28;20035;-82
2021/06/07 08:23:52;;;;;;;0.60;0.60;;;25.50;90.10;;;;;;5074331;28;20520;-82
2021/06/07 08:26:17;;;;;;;0.75;0.70;;;25.60;90.10;;;;;;5056275;28;20059;-82
2021/06/07 08:28:43;;;;;;;1.05;0.70;;;25.60;90.10;;;;;;5074330;28;20032;-81
2021/06/07 08:31:09;;;;;;;0.80;0.80;;;25.60;90.10;;;;;;5039345;28;20029;-82
2021/06/07 08:33:36;;;;;;;0.63;0.63;;;25.60;90.10;;;;;;5038483;28;20162;-82
2021/06/07 08:36:05;;;;;;;1.17;1.00;;;25.60;90.10;;;;;;5056550;28;20378;-82
2021/06/07 08:38:31;;;;;;;0.60;0.60;;;25.60;90.10;;;;;;5038995;28;20037;-82
2021/06/07 08:40:57;;;;;;;0.80;0.60;;;25.60;90.00;;;;;;5055985;28;20020;-83
2021/06/07 08:43:24;;;;;;;1.23;0.60;;;25.60;90.00;;;;;;5073837;28;20024;-81
2021/06/07 08:45:50;;;;;;;0.57;0.50;;;25.70;90.00;;;;;;5094203;28;20105;-81
2021/06/07 08:48:17;;;;;;;0.80;0.68;;;25.70;90.00;;;;;;5093553;28;20371;-80
2021/06/07 08:50:43;;;;;;;0.80;0.70;;;25.70;90.00;;;;;;5076064;28;20381;-81
2021/06/07 08:53:09;;;;;;;0.80;0.60;;;25.70;90.00;;;;;;5075606;28;20081;-82
2021/06/07 08:55:36;;;;;;;0.70;0.70;;;25.70;90.00;;;;;;5094198;28;20024;-81
2021/06/07 08:58:07;;;;;;;0.82;0.60;;;25.70;90.00;;;;;;5075670;28;20075;-81
2021/06/07 09:00:37;;;;;;;1.20;0.90;;;25.70;90.00;;;;;;5075491;28;20476;-83
2021/06/07 09:03:06;;;;;;;0.73;0.70;;;25.70;90.00;;;;;;5075839;28;20149;-80
2021/06/07 09:05:32;;;;;;;1.00;0.80;;;25.70;89.90;;;;;;5093661;28;20031;-81
2021/06/07 09:08:02;;;;;;;0.95;0.90;;;25.70;89.90;;;;;;5059118;28;20115;-81
2021/06/07 09:10:31;;;;;;;1.10;1.00;;;25.70;89.80;;;;;;5093091;28;20028;-82
2021/06/07 09:13:00;;;;;;;0.80;0.80;;;25.80;89.90;;;;;;5075262;28;20032;-82
2021/06/07 09:15:32;;;;;;;2.03;0.80;;;25.70;89.80;;;;;;5074908;28;20107;-81
2021/06/07 09:17:59;;;;;;;0.80;0.80;;;25.80;89.80;;;;;;5093533;28;20035;-81
2021/06/07 09:20:26;;;;;;;1.52;0.90;;;25.80;89.80;;;;;;5093410;28;20039;-82
2021/06/07 09:23:05;;;;;;;0.90;0.80;;;25.80;89.80;;;;;;5093655;28;20032;-81
2021/06/07 09:25:33;;;;;;;1.15;1.05;;;25.80;89.80;;;;;;5060254;28;20589;-81
2021/06/07 09:28:21;;;;;;;0.80;0.80;;;25.80;89.70;;;;;;5075465;28;20035;-81
2021/06/07 09:30:50;;;;;;;1.13;1.02;;;25.80;89.70;;;;;;5075396;28;20027;-83
2021/06/07 09:33:36;;;;;;;0.90;0.80;;;25.80;89.70;;;;;;5092827;28;20068;-82
2021/06/07 09:36:27;;;;;;;1.45;0.88;;;25.80;89.70;;;;;;5075647;28;20027;-81
2021/06/07 09:39:06;;;;;;;1.13;0.98;;;25.80;89.70;;;;;;5075248;28;20032;-82
2021/06/07 09:41:43;;;;;;;1.00;0.95;;;25.80;89.80;;;;;;5093385;28;20432;-82
2021/06/07 09:44:16;;;;;;;1.10;1.00;;;25.80;90.10;;;;;;5093117;28;20024;-84
2021/06/07 09:46:42;;;;;;;0.90;0.80;;;25.80;90.20;;;;;;5059517;28;20363;-83
2021/06/07 09:49:09;;;;;;;1.15;1.05;;;25.80;90.40;;;;;;5058860;28;20043;-83
2021/06/07 09:51:37;;;;;;;1.23;1.00;;;25.80;90.40;;;;;;5074690;28;20099;-83
2021/06/07 09:54:04;;;;;;;0.90;0.90;;;25.80;90.40;;;;;;5092778;28;20099;-83
2021/06/07 09:56:30;;;;;;;1.60;1.00;;;25.90;90.50;;;;;;5058230;28;20378;-83
2021/06/07 09:58:55;;;;;;;0.85;0.82;;;25.80;90.40;;;;;;5074747;28;20036;-82
2021/06/07 10:01:27;;;;;;;0.88;0.82;;;25.80;90.50;;;;;;5074809;28;20040;-83
2021/06/07 10:03:59;;;;;;;1.00;0.90;;;25.90;90.50;;;;;;5093166;28;20040;-83
2021/06/07 10:06:34;;;;;;;0.88;0.88;;;25.80;90.50;;;;;;5074856;28;20028;-82
2021/06/07 10:09:12;;;;;;;0.82;0.82;;;25.80;90.50;;;;;;5058236;28;20145;-82
2021/06/07 10:11:45;;;;;;;0.80;0.80;;;25.90;90.60;;;;;;5093060;28;20024;-82
2021/06/07 10:14:15;;;;;;;0.88;0.88;;;25.90;90.60;;;;;;5075006;28;20036;-82
2021/06/07 10:17:02;;;;;;;0.73;0.73;;;25.90;90.70;;;;;;5092935;28;20130;-82
2021/06/07 10:22:10;;;;;;;0.70;0.70;;;25.90;91.10;;;;;;5077265;28;20040;-82
2021/06/07 10:24:36;;;;;;;1.00;0.90;;;25.90;91.00;;;;;;5074580;28;20289;-82
2021/06/07 10:27:02;;;;;;;1.00;0.85;;;25.90;91.00;;;;;;5092833;28;20064;-82
2021/06/07 10:29:43;;;;;;;1.20;1.10;;;25.90;91.10;;;;;;5092722;28;20028;-82
2021/06/07 10:32:17;;;;;;;0.70;0.70;;;25.90;91.10;;;;;;5092793;28;20022;-82
2021/06/07 10:34:49;;;;;;;0.70;0.70;;;25.90;91.20;;;;;;5074556;28;20023;-82
2021/06/07 10:37:15;;;;;;;0.80;0.80;;;25.90;91.20;;;;;;5092715;28;20051;-82
2021/06/07 10:39:41;;;;;;;0.73;0.70;;;25.90;91.20;;;;;;5074450;28;20036;-82
2021/06/07 10:42:09;;;;;;;1.10;1.00;;;26.00;91.20;;;;;;5074730;28;20035;-81
2021/06/07 10:44:50;;;;;;;1.20;0.93;;;26.00;91.20;;;;;;5091129;28;20025;-82
2021/06/07 10:47:25;;;;;;;1.33;0.90;;;26.00;91.30;;;;;;5074916;28;20454;-82
2021/06/07 10:50:06;;;;;;;1.08;0.98;;;26.00;91.50;;;;;;5074406;28;20064;-82
2021/06/07 10:52:50;;;;;;;1.23;1.10;;;26.00;91.30;;;;;;5074333;28;20378;-82
2021/06/07 10:55:21;;;;;;;1.10;1.00;;;26.00;91.30;;;;;;5092964;28;20099;-82
2021/06/07 10:57:48;;;;;;;0.98;0.98;;;26.00;91.30;;;;;;5074606;28;20032;-82
2021/06/07 11:00:21;;;;;;;1.10;1.00;;;26.00;91.30;;;;;;5074426;28;20458;-83
2021/06/07 11:02:49;;;;;;;1.35;1.00;;;26.00;91.30;;;;;;5073811;28;20055;-84
2021/06/07 11:05:20;;;;;;;1.00;0.80;;;26.00;91.30;;;;;;5074521;28;20055;-82
2021/06/07 11:08:00;;;;;;;0.90;0.88;;;26.00;91.30;;;;;;5074625;28;20030;-82
2021/06/07 11:10:31;;;;;;;0.70;0.70;;;26.00;91.30;;;;;;5093725;28;20028;-82
2021/06/07 11:13:05;;;;;;;1.27;1.02;;;26.10;91.30;;;;;;5096360;28;20024;-82
2021/06/07 11:15:55;;;;;;;1.15;0.90;;;26.10;91.30;;;;;;5096150;28;20029;-82
2021/06/07 11:18:23;;;;;;;1.00;0.90;;;26.10;91.60;;;;;;5060088;28;20063;-82
2021/06/07 11:20:52;;;;;;;1.17;1.08;;;26.10;91.60;;;;;;5077728;28;20020;-82
2021/06/07 11:23:21;;;;;;;1.77;1.27;;;26.10;91.40;;;;;;5077886;28;20032;-81
2021/06/07 11:25:53;;;;;;;1.20;1.00;;;26.10;91.30;;;;;;5095381;28;20107;-84
2021/06/07 11:28:40;;;;;;;0.98;0.90;;;26.10;91.40;;;;;;5077705;28;20480;-83
2021/06/07 11:31:15;;;;;;;0.93;0.82;;;26.10;91.30;;;;;;5095916;28;20024;-84
2021/06/07 11:34:07;;;;;;;1.55;1.30;;;26.10;91.30;;;;;;5095414;28;20035;-84
2021/06/07 11:36:41;;;;;;;1.15;1.00;;;26.10;91.30;;;;;;5077479;28;20081;-84
2021/06/07 11:39:21;;;;;;;1.33;1.23;;;26.10;91.30;;;;;;5077398;28;20142;-85
2021/06/07 11:41:54;;;;;;;0.82;0.82;;;26.10;91.30;;;;;;5077562;28;20025;-85
2021/06/07 11:44:42;;;;;;;1.10;1.00;;;26.10;91.30;;;;;;5077811;28;20028;-85
2021/06/07 11:47:21;;;;;;;0.85;0.85;;;26.20;91.30;;;;;;5095402;28;20470;-85
2021/06/07 11:49:56;;;;;;;0.57;0.57;;;26.10;91.30;;;;;;5095462;28;20040;-84
2021/06/07 11:52:47;;;;;;;1.05;1.00;;;26.20;91.20;;;;;;5075330;28;20035;-84
2021/06/07 11:55:34;;;;;;;0.90;0.85;;;26.20;91.20;;;;;;5075212;28;20028;-83
2021/06/07 11:58:24;;;;;;;1.27;1.17;;;26.20;91.20;;;;;;5093155;28;20031;-83
2021/06/07 12:00:52;;;;;;;1.00;0.90;;;26.20;91.20;;;;;;5045709;28;20379;-83
2021/06/07 12:03:24;;;;;;;1.20;1.10;;;26.20;91.20;;;;;;5075454;28;20024;-84
2021/06/07 12:05:50;;;;;;;0.90;0.90;;;26.20;91.20;;;;;;5075094;28;20066;-83
2021/06/07 12:08:18;;;;;;;0.77;0.77;;;26.20;91.30;;;;;;5058741;28;20123;-83
2021/06/07 12:10:56;;;;;;;0.80;0.80;;;26.20;91.40;;;;;;5094333;28;20030;-82
2021/06/07 12:13:23;;;;;;;1.10;1.00;;;26.20;91.40;;;;;;5094721;28;20035;-82
2021/06/07 12:16:12;;;;;;;0.73;0.73;;;26.20;91.40;;;;;;5076199;28;20024;-83
2021/06/07 12:18:45;;;;;;;1.10;1.00;;;26.20;91.30;;;;;;5076353;28;20036;-82
2021/06/07 12:21:16;;;;;;;1.02;0.88;;;26.20;91.30;;;;;;5094298;28;20125;-82
2021/06/07 12:24:02;;;;;;;1.10;0.90;;;26.20;91.20;;;;;;5076489;28;20032;-82
2021/06/07 12:29:27;;;;;;;0.82;0.82;;;26.20;91.30;;;;;;5079335;28;20389;-82
2021/06/07 12:32:17;;;;;;;0.98;0.88;;;26.20;91.30;;;;;;5076358;28;20031;-82
2021/06/07 12:35:19;;;;;;;0.80;0.77;;;26.20;91.30;;;;;;5077447;28;20053;-81
2021/06/07 12:37:53;;;;;;;0.70;0.70;;;26.20;91.30;;;;;;4978873;28;20050;-82
2021/06/07 12:40:24;;;;;;;0.70;0.70;;;26.20;91.30;;;;;;5064571;28;20044;-82
2021/06/07 12:42:53;;;;;;;0.80;0.80;;;26.20;91.30;;;;;;5093403;28;20031;-82
2021/06/07 12:45:23;;;;;;;0.70;0.70;;;26.20;91.30;;;;;;5076364;28;20024;-82
2021/06/07 12:47:49;;;;;;;0.60;0.60;;;26.20;91.30;;;;;;5076029;28;20047;-82
2021/06/07 12:50:22;;;;;;;0.90;0.80;;;26.20;91.30;;;;;;5076485;28;20047;-81
2021/06/07 12:52:51;;;;;;;0.60;0.60;;;26.20;91.30;;;;;;5075862;28;20024;-82